Archival Weather

Tokyo Intl

Tokyo Intl, Japan (RJTT)

Report from: Friday, June 24, 2022 1:00 PM JST
Current time: Tuesday, August 16, 2022 3:28 PM JST

Current weather
Weather history
Weather forecast

Temperature30.0°C (86.0°F)
Heat index34.2°C (93.6°F)
Dew point23.0°C (73.4°F)
Winds 23 kts (11.8 m/s, 26.5 mph) South-Southwest (200°)
Wind gusts 34 kts (17.5 m/s, 39.1 mph)
Visibility6.2 mi. (10 km)
Clouds Ceiling: Broken clouds 0 ft. (0 m)
Few clouds 2,500 ft. (762 m)
Altimeter29.62 in.Hg (1003 mB)
Relative humidity66 %
Density altitude2,441 ft. (744 m)
Flight conditions Low Instrument Meteorological Conditions
Raw dataRJTT 240400Z 20023KT 9999 FEW025 BKN/// 30/23 Q1003 TEMPO 20024G34KT RMK 1CU025 A2964
An error has occurred. This application may no longer respond until reloaded. Reload 🗙